sensor_id;sensor_type;location;lat;lon;timestamp;P1;durP1;ratioP1;P2;durP2;ratioP2
38937;SDS011;24727;51.974;20.868;2023-02-28T00:01:27;15.35;;;7.40;;
38937;SDS011;24727;51.974;20.868;2023-02-28T00:03:53;17.30;;;7.20;;
38937;SDS011;24727;51.974;20.868;2023-02-28T00:06:19;12.80;;;6.80;;
38937;SDS011;24727;51.974;20.868;2023-02-28T00:08:46;17.58;;;7.60;;
38937;SDS011;24727;51.974;20.868;2023-02-28T00:11:13;12.55;;;7.22;;
38937;SDS011;24727;51.974;20.868;2023-02-28T00:13:40;11.05;;;6.38;;
38937;SDS011;24727;51.974;20.868;2023-02-28T00:16:10;12.35;;;5.88;;
38937;SDS011;24727;51.974;20.868;2023-02-28T00:18:38;12.25;;;5.82;;
38937;SDS011;24727;51.974;20.868;2023-02-28T00:21:05;16.85;;;7.07;;
38937;SDS011;24727;51.974;20.868;2023-02-28T00:23:33;12.43;;;6.10;;
38937;SDS011;24727;51.974;20.868;2023-02-28T00:26:00;12.20;;;6.80;;
38937;SDS011;24727;51.974;20.868;2023-02-28T00:28:26;14.52;;;7.72;;
38937;SDS011;24727;51.974;20.868;2023-02-28T00:30:52;16.00;;;7.38;;
38937;SDS011;24727;51.974;20.868;2023-02-28T00:33:19;13.90;;;6.93;;
38937;SDS011;24727;51.974;20.868;2023-02-28T00:35:45;13.23;;;6.75;;
38937;SDS011;24727;51.974;20.868;2023-02-28T00:38:13;14.50;;;6.88;;
38937;SDS011;24727;51.974;20.868;2023-02-28T00:40:40;12.40;;;7.20;;
38937;SDS011;24727;51.974;20.868;2023-02-28T00:43:08;16.67;;;7.90;;
38937;SDS011;24727;51.974;20.868;2023-02-28T00:45:40;13.52;;;7.18;;
38937;SDS011;24727;51.974;20.868;2023-02-28T00:48:06;13.45;;;7.00;;
38937;SDS011;24727;51.974;20.868;2023-02-28T00:50:33;13.45;;;6.85;;
38937;SDS011;24727;51.974;20.868;2023-02-28T00:52:59;16.38;;;7.78;;
38937;SDS011;24727;51.974;20.868;2023-02-28T00:55:25;15.35;;;7.78;;
38937;SDS011;24727;51.974;20.868;2023-02-28T00:57:51;13.75;;;7.43;;
38937;SDS011;24727;51.974;20.868;2023-02-28T01:00:18;16.95;;;9.10;;
38937;SDS011;24727;51.974;20.868;2023-02-28T01:02:44;14.23;;;7.38;;
38937;SDS011;24727;51.974;20.868;2023-02-28T01:05:10;16.27;;;8.00;;
38937;SDS011;24727;51.974;20.868;2023-02-28T01:07:37;15.35;;;7.85;;
38937;SDS011;24727;51.974;20.868;2023-02-28T01:10:04;15.02;;;7.53;;
38937;SDS011;24727;51.974;20.868;2023-02-28T01:12:30;18.27;;;8.43;;
38937;SDS011;24727;51.974;20.868;2023-02-28T01:14:56;15.48;;;8.20;;
38937;SDS011;24727;51.974;20.868;2023-02-28T01:17:23;14.98;;;8.35;;
38937;SDS011;24727;51.974;20.868;2023-02-28T01:19:52;19.23;;;9.55;;
38937;SDS011;24727;51.974;20.868;2023-02-28T01:22:19;21.30;;;10.48;;
38937;SDS011;24727;51.974;20.868;2023-02-28T01:24:45;26.35;;;11.80;;
38937;SDS011;24727;51.974;20.868;2023-02-28T01:27:11;25.73;;;12.25;;
38937;SDS011;24727;51.974;20.868;2023-02-28T01:29:38;22.70;;;12.18;;
38937;SDS011;24727;51.974;20.868;2023-02-28T01:32:04;25.25;;;12.73;;
38937;SDS011;24727;51.974;20.868;2023-02-28T01:34:30;23.75;;;12.45;;
38937;SDS011;24727;51.974;20.868;2023-02-28T01:36:56;28.48;;;12.70;;
38937;SDS011;24727;51.974;20.868;2023-02-28T01:39:25;31.05;;;14.10;;
38937;SDS011;24727;51.974;20.868;2023-02-28T01:41:52;27.27;;;13.65;;
38937;SDS011;24727;51.974;20.868;2023-02-28T01:47:21;23.80;;;11.73;;
38937;SDS011;24727;51.974;20.868;2023-02-28T01:49:48;27.35;;;11.82;;
38937;SDS011;24727;51.974;20.868;2023-02-28T01:52:17;22.90;;;11.10;;
38937;SDS011;24727;51.974;20.868;2023-02-28T01:54:49;21.52;;;10.65;;
38937;SDS011;24727;51.974;20.868;2023-02-28T01:57:21;23.90;;;11.20;;
38937;SDS011;24727;51.974;20.868;2023-02-28T01:59:57;22.25;;;9.73;;
38937;SDS011;24727;51.974;20.868;2023-02-28T02:02:26;17.53;;;8.97;;
38937;SDS011;24727;51.974;20.868;2023-02-28T02:04:55;21.58;;;10.52;;
38937;SDS011;24727;51.974;20.868;2023-02-28T02:07:29;19.55;;;8.77;;
38937;SDS011;24727;51.974;20.868;2023-02-28T02:17:51;24.75;;;10.52;;
38937;SDS011;24727;51.974;20.868;2023-02-28T02:34:16;22.93;;;10.83;;
38937;SDS011;24727;51.974;20.868;2023-02-28T02:39:53;20.07;;;10.47;;
38937;SDS011;24727;51.974;20.868;2023-02-28T02:45:10;20.30;;;10.37;;
38937;SDS011;24727;51.974;20.868;2023-02-28T02:47:42;23.40;;;10.17;;
38937;SDS011;24727;51.974;20.868;2023-02-28T02:50:12;21.47;;;10.33;;
38937;SDS011;24727;51.974;20.868;2023-02-28T02:52:44;20.97;;;10.37;;
38937;SDS011;24727;51.974;20.868;2023-02-28T02:55:15;23.07;;;10.80;;
38937;SDS011;24727;51.974;20.868;2023-02-28T03:00:17;22.87;;;11.53;;
38937;SDS011;24727;51.974;20.868;2023-02-28T03:02:47;25.27;;;13.30;;
38937;SDS011;24727;51.974;20.868;2023-02-28T03:05:19;25.07;;;11.40;;
38937;SDS011;24727;51.974;20.868;2023-02-28T03:07:51;22.67;;;11.33;;
38937;SDS011;24727;51.974;20.868;2023-02-28T03:10:34;24.80;;;11.83;;
38937;SDS011;24727;51.974;20.868;2023-02-28T03:16:17;18.87;;;10.70;;
38937;SDS011;24727;51.974;20.868;2023-02-28T03:19:02;26.67;;;11.90;;
38937;SDS011;24727;51.974;20.868;2023-02-28T03:21:40;25.57;;;11.50;;
38937;SDS011;24727;51.974;20.868;2023-02-28T03:24:24;24.25;;;10.57;;
38937;SDS011;24727;51.974;20.868;2023-02-28T03:27:23;22.13;;;11.77;;
38937;SDS011;24727;51.974;20.868;2023-02-28T03:30:10;21.13;;;10.93;;
38937;SDS011;24727;51.974;20.868;2023-02-28T03:32:50;18.57;;;11.37;;
38937;SDS011;24727;51.974;20.868;2023-02-28T03:35:24;23.17;;;10.73;;
38937;SDS011;24727;51.974;20.868;2023-02-28T03:37:58;20.83;;;11.47;;
38937;SDS011;24727;51.974;20.868;2023-02-28T03:40:39;22.27;;;10.93;;
38937;SDS011;24727;51.974;20.868;2023-02-28T03:43:12;30.48;;;11.65;;
38937;SDS011;24727;51.974;20.868;2023-02-28T03:45:43;29.37;;;12.10;;
38937;SDS011;24727;51.974;20.868;2023-02-28T03:48:14;23.43;;;11.33;;
38937;SDS011;24727;51.974;20.868;2023-02-28T03:50:45;25.87;;;13.40;;
38937;SDS011;24727;51.974;20.868;2023-02-28T03:56:03;23.63;;;12.70;;
38937;SDS011;24727;51.974;20.868;2023-02-28T03:59:00;23.15;;;11.75;;
38937;SDS011;24727;51.974;20.868;2023-02-28T04:04:12;23.90;;;12.60;;
38937;SDS011;24727;51.974;20.868;2023-02-28T04:06:39;25.60;;;13.03;;
38937;SDS011;24727;51.974;20.868;2023-02-28T04:09:07;23.27;;;12.03;;
38937;SDS011;24727;51.974;20.868;2023-02-28T04:11:35;24.90;;;13.53;;
38937;SDS011;24727;51.974;20.868;2023-02-28T04:14:03;25.40;;;12.70;;
38937;SDS011;24727;51.974;20.868;2023-02-28T04:16:32;32.13;;;13.93;;
38937;SDS011;24727;51.974;20.868;2023-02-28T04:18:59;25.80;;;13.20;;
38937;SDS011;24727;51.974;20.868;2023-02-28T04:21:35;26.57;;;12.53;;
38937;SDS011;24727;51.974;20.868;2023-02-28T04:24:05;26.17;;;13.33;;
38937;SDS011;24727;51.974;20.868;2023-02-28T04:26:32;26.83;;;12.97;;
38937;SDS011;24727;51.974;20.868;2023-02-28T04:29:01;28.47;;;13.50;;
38937;SDS011;24727;51.974;20.868;2023-02-28T04:31:29;29.97;;;13.97;;
38937;SDS011;24727;51.974;20.868;2023-02-28T04:33:55;25.47;;;13.60;;
38937;SDS011;24727;51.974;20.868;2023-02-28T04:36:23;26.67;;;12.43;;
38937;SDS011;24727;51.974;20.868;2023-02-28T04:38:50;30.60;;;13.60;;
38937;SDS011;24727;51.974;20.868;2023-02-28T04:41:17;30.00;;;14.27;;
38937;SDS011;24727;51.974;20.868;2023-02-28T04:43:45;32.20;;;14.43;;
38937;SDS011;24727;51.974;20.868;2023-02-28T04:46:11;32.07;;;14.53;;
38937;SDS011;24727;51.974;20.868;2023-02-28T04:48:38;34.93;;;14.97;;
38937;SDS011;24727;51.974;20.868;2023-02-28T04:51:06;29.03;;;14.80;;
38937;SDS011;24727;51.974;20.868;2023-02-28T04:53:34;26.50;;;13.13;;
38937;SDS011;24727;51.974;20.868;2023-02-28T04:56:04;31.13;;;14.67;;
38937;SDS011;24727;51.974;20.868;2023-02-28T04:58:34;32.67;;;16.00;;
38937;SDS011;24727;51.974;20.868;2023-02-28T05:01:03;30.97;;;15.40;;
38937;SDS011;24727;51.974;20.868;2023-02-28T05:03:39;34.33;;;15.87;;
38937;SDS011;24727;51.974;20.868;2023-02-28T05:06:06;29.63;;;15.53;;
38937;SDS011;24727;51.974;20.868;2023-02-28T05:08:33;36.43;;;15.63;;
38937;SDS011;24727;51.974;20.868;2023-02-28T05:11:00;35.83;;;16.73;;
38937;SDS011;24727;51.974;20.868;2023-02-28T05:13:27;38.47;;;17.63;;
38937;SDS011;24727;51.974;20.868;2023-02-28T05:15:54;39.93;;;17.83;;
38937;SDS011;24727;51.974;20.868;2023-02-28T05:18:21;32.93;;;15.73;;
38937;SDS011;24727;51.974;20.868;2023-02-28T05:20:47;32.00;;;15.70;;
38937;SDS011;24727;51.974;20.868;2023-02-28T05:23:14;34.53;;;16.23;;
38937;SDS011;24727;51.974;20.868;2023-02-28T05:25:42;29.77;;;15.10;;
38937;SDS011;24727;51.974;20.868;2023-02-28T05:28:08;33.70;;;15.97;;
38937;SDS011;24727;51.974;20.868;2023-02-28T05:30:36;28.47;;;14.87;;
38937;SDS011;24727;51.974;20.868;2023-02-28T05:33:03;30.53;;;15.17;;
38937;SDS011;24727;51.974;20.868;2023-02-28T05:35:29;27.63;;;13.73;;
38937;SDS011;24727;51.974;20.868;2023-02-28T05:38:01;30.90;;;15.13;;
38937;SDS011;24727;51.974;20.868;2023-02-28T05:40:29;35.13;;;14.87;;
38937;SDS011;24727;51.974;20.868;2023-02-28T05:42:55;31.83;;;15.23;;
38937;SDS011;24727;51.974;20.868;2023-02-28T05:45:21;32.97;;;15.90;;
38937;SDS011;24727;51.974;20.868;2023-02-28T05:47:47;32.50;;;16.53;;
38937;SDS011;24727;51.974;20.868;2023-02-28T05:50:13;34.37;;;16.63;;
38937;SDS011;24727;51.974;20.868;2023-02-28T05:52:39;28.90;;;13.60;;
38937;SDS011;24727;51.974;20.868;2023-02-28T05:55:06;30.87;;;15.73;;
38937;SDS011;24727;51.974;20.868;2023-02-28T05:57:32;41.73;;;16.57;;
38937;SDS011;24727;51.974;20.868;2023-02-28T06:02:29;34.83;;;15.03;;
38937;SDS011;24727;51.974;20.868;2023-02-28T06:04:55;31.80;;;15.47;;
38937;SDS011;24727;51.974;20.868;2023-02-28T06:07:21;33.40;;;14.10;;
38937;SDS011;24727;51.974;20.868;2023-02-28T06:09:47;31.17;;;15.63;;
38937;SDS011;24727;51.974;20.868;2023-02-28T06:12:13;34.97;;;15.97;;
38937;SDS011;24727;51.974;20.868;2023-02-28T06:14:40;37.37;;;15.87;;
38937;SDS011;24727;51.974;20.868;2023-02-28T06:17:06;31.57;;;15.20;;
38937;SDS011;24727;51.974;20.868;2023-02-28T06:19:34;29.70;;;15.53;;
38937;SDS011;24727;51.974;20.868;2023-02-28T06:22:04;30.33;;;16.03;;
38937;SDS011;24727;51.974;20.868;2023-02-28T06:24:30;27.80;;;14.97;;
38937;SDS011;24727;51.974;20.868;2023-02-28T06:26:56;35.33;;;16.63;;
38937;SDS011;24727;51.974;20.868;2023-02-28T06:29:25;34.17;;;17.97;;
38937;SDS011;24727;51.974;20.868;2023-02-28T06:31:51;35.83;;;17.17;;
38937;SDS011;24727;51.974;20.868;2023-02-28T06:34:17;42.33;;;18.60;;
38937;SDS011;24727;51.974;20.868;2023-02-28T06:36:43;40.23;;;18.20;;
38937;SDS011;24727;51.974;20.868;2023-02-28T06:39:10;38.83;;;17.97;;
38937;SDS011;24727;51.974;20.868;2023-02-28T06:41:36;43.63;;;19.47;;
38937;SDS011;24727;51.974;20.868;2023-02-28T06:44:11;51.77;;;19.50;;
38937;SDS011;24727;51.974;20.868;2023-02-28T06:46:43;50.90;;;19.60;;
38937;SDS011;24727;51.974;20.868;2023-02-28T06:49:11;58.90;;;19.10;;
38937;SDS011;24727;51.974;20.868;2023-02-28T06:51:38;65.65;;;20.63;;
38937;SDS011;24727;51.974;20.868;2023-02-28T06:54:07;66.20;;;21.20;;
38937;SDS011;24727;51.974;20.868;2023-02-28T06:56:36;53.57;;;19.33;;
38937;SDS011;24727;51.974;20.868;2023-02-28T06:59:02;63.83;;;21.57;;
38937;SDS011;24727;51.974;20.868;2023-02-28T07:01:30;45.53;;;20.10;;
38937;SDS011;24727;51.974;20.868;2023-02-28T07:03:58;42.27;;;17.67;;
38937;SDS011;24727;51.974;20.868;2023-02-28T07:06:25;37.87;;;17.60;;
38937;SDS011;24727;51.974;20.868;2023-02-28T07:08:53;48.13;;;19.45;;
38937;SDS011;24727;51.974;20.868;2023-02-28T07:11:21;43.80;;;18.75;;
38937;SDS011;24727;51.974;20.868;2023-02-28T07:13:54;23.00;;;12.45;;
38937;SDS011;24727;51.974;20.868;2023-02-28T07:16:21;32.22;;;16.27;;
38937;SDS011;24727;51.974;20.868;2023-02-28T07:18:48;40.45;;;17.92;;
38937;SDS011;24727;51.974;20.868;2023-02-28T07:21:14;31.83;;;14.77;;
38937;SDS011;24727;51.974;20.868;2023-02-28T07:23:40;28.27;;;13.18;;
38937;SDS011;24727;51.974;20.868;2023-02-28T07:26:12;26.00;;;13.55;;
38937;SDS011;24727;51.974;20.868;2023-02-28T07:28:44;27.60;;;14.15;;
38937;SDS011;24727;51.974;20.868;2023-02-28T07:33:42;23.50;;;11.32;;
38937;SDS011;24727;51.974;20.868;2023-02-28T07:36:13;21.58;;;10.73;;
38937;SDS011;24727;51.974;20.868;2023-02-28T07:38:43;17.85;;;10.05;;
38937;SDS011;24727;51.974;20.868;2023-02-28T07:41:11;18.85;;;10.18;;
38937;SDS011;24727;51.974;20.868;2023-02-28T07:43:37;21.00;;;10.02;;
38937;SDS011;24727;51.974;20.868;2023-02-28T07:46:04;19.63;;;10.43;;
38937;SDS011;24727;51.974;20.868;2023-02-28T07:48:32;18.33;;;9.68;;
38937;SDS011;24727;51.974;20.868;2023-02-28T07:50:58;18.95;;;9.70;;
38937;SDS011;24727;51.974;20.868;2023-02-28T07:53:26;14.30;;;8.63;;
38937;SDS011;24727;51.974;20.868;2023-02-28T07:56:00;19.73;;;8.70;;
38937;SDS011;24727;51.974;20.868;2023-02-28T07:58:28;13.20;;;7.60;;
38937;SDS011;24727;51.974;20.868;2023-02-28T08:00:55;10.60;;;6.90;;
38937;SDS011;24727;51.974;20.868;2023-02-28T08:03:21;15.65;;;7.15;;
38937;SDS011;24727;51.974;20.868;2023-02-28T08:05:50;13.40;;;7.68;;
38937;SDS011;24727;51.974;20.868;2023-02-28T08:08:18;11.05;;;7.18;;
38937;SDS011;24727;51.974;20.868;2023-02-28T08:10:44;11.77;;;7.07;;
38937;SDS011;24727;51.974;20.868;2023-02-28T08:13:12;10.88;;;6.72;;
38937;SDS011;24727;51.974;20.868;2023-02-28T08:15:40;10.15;;;5.68;;
38937;SDS011;24727;51.974;20.868;2023-02-28T08:18:08;13.80;;;7.03;;
38937;SDS011;24727;51.974;20.868;2023-02-28T08:20:34;9.80;;;5.55;;
38937;SDS011;24727;51.974;20.868;2023-02-28T08:23:00;10.20;;;6.43;;
38937;SDS011;24727;51.974;20.868;2023-02-28T08:25:26;9.00;;;5.80;;
38937;SDS011;24727;51.974;20.868;2023-02-28T08:27:52;11.65;;;5.95;;
38937;SDS011;24727;51.974;20.868;2023-02-28T08:30:18;11.15;;;5.72;;
38937;SDS011;24727;51.974;20.868;2023-02-28T08:32:44;11.35;;;6.30;;
38937;SDS011;24727;51.974;20.868;2023-02-28T08:35:11;12.88;;;7.00;;
38937;SDS011;24727;51.974;20.868;2023-02-28T08:37:38;11.10;;;6.53;;
38937;SDS011;24727;51.974;20.868;2023-02-28T08:40:04;12.18;;;6.95;;
38937;SDS011;24727;51.974;20.868;2023-02-28T08:42:32;12.65;;;6.72;;
38937;SDS011;24727;51.974;20.868;2023-02-28T08:44:58;10.77;;;6.32;;
38937;SDS011;24727;51.974;20.868;2023-02-28T08:47:24;14.30;;;7.22;;
38937;SDS011;24727;51.974;20.868;2023-02-28T08:49:51;11.82;;;7.32;;
38937;SDS011;24727;51.974;20.868;2023-02-28T08:52:17;13.98;;;7.32;;
38937;SDS011;24727;51.974;20.868;2023-02-28T08:54:43;13.43;;;7.35;;
38937;SDS011;24727;51.974;20.868;2023-02-28T08:57:11;15.10;;;7.57;;
38937;SDS011;24727;51.974;20.868;2023-02-28T08:59:37;9.45;;;6.20;;
38937;SDS011;24727;51.974;20.868;2023-02-28T09:02:03;11.85;;;6.50;;
38937;SDS011;24727;51.974;20.868;2023-02-28T09:04:29;9.85;;;5.75;;
38937;SDS011;24727;51.974;20.868;2023-02-28T09:06:56;8.80;;;5.95;;
38937;SDS011;24727;51.974;20.868;2023-02-28T09:09:22;9.23;;;6.15;;
38937;SDS011;24727;51.974;20.868;2023-02-28T09:11:48;10.00;;;6.00;;
38937;SDS011;24727;51.974;20.868;2023-02-28T09:14:15;8.98;;;5.65;;
38937;SDS011;24727;51.974;20.868;2023-02-28T09:16:42;10.98;;;6.25;;
38937;SDS011;24727;51.974;20.868;2023-02-28T09:19:13;8.93;;;5.60;;
38937;SDS011;24727;51.974;20.868;2023-02-28T09:21:39;11.38;;;5.95;;
38937;SDS011;24727;51.974;20.868;2023-02-28T09:24:05;10.80;;;6.25;;
38937;SDS011;24727;51.974;20.868;2023-02-28T09:26:32;10.13;;;6.22;;
38937;SDS011;24727;51.974;20.868;2023-02-28T09:29:00;11.25;;;6.63;;
38937;SDS011;24727;51.974;20.868;2023-02-28T09:31:29;11.55;;;7.00;;
38937;SDS011;24727;51.974;20.868;2023-02-28T09:33:57;13.68;;;7.15;;
38937;SDS011;24727;51.974;20.868;2023-02-28T09:36:25;15.32;;;7.35;;
38937;SDS011;24727;51.974;20.868;2023-02-28T09:38:53;16.15;;;7.40;;
38937;SDS011;24727;51.974;20.868;2023-02-28T09:41:21;19.65;;;7.63;;
38937;SDS011;24727;51.974;20.868;2023-02-28T09:43:52;10.85;;;6.07;;
38937;SDS011;24727;51.974;20.868;2023-02-28T09:46:30;13.77;;;6.72;;
38937;SDS011;24727;51.974;20.868;2023-02-28T09:49:15;10.02;;;6.57;;
38937;SDS011;24727;51.974;20.868;2023-02-28T09:51:50;13.57;;;7.00;;
38937;SDS011;24727;51.974;20.868;2023-02-28T09:54:24;12.57;;;7.03;;
38937;SDS011;24727;51.974;20.868;2023-02-28T09:57:01;12.82;;;7.35;;
38937;SDS011;24727;51.974;20.868;2023-02-28T09:59:42;13.32;;;7.93;;
38937;SDS011;24727;51.974;20.868;2023-02-28T10:08:39;13.05;;;6.78;;
38937;SDS011;24727;51.974;20.868;2023-02-28T10:11:26;12.60;;;6.68;;
38937;SDS011;24727;51.974;20.868;2023-02-28T10:14:16;9.57;;;5.82;;
38937;SDS011;24727;51.974;20.868;2023-02-28T10:19:34;13.23;;;6.32;;
38937;SDS011;24727;51.974;20.868;2023-02-28T10:22:14;14.95;;;5.88;;
38937;SDS011;24727;51.974;20.868;2023-02-28T10:24:59;10.57;;;7.10;;
38937;SDS011;24727;51.974;20.868;2023-02-28T10:27:30;10.15;;;6.47;;
38937;SDS011;24727;51.974;20.868;2023-02-28T10:29:58;11.27;;;6.15;;
38937;SDS011;24727;51.974;20.868;2023-02-28T10:37:48;11.43;;;8.18;;
38937;SDS011;24727;51.974;20.868;2023-02-28T10:43:11;11.65;;;7.05;;
38937;SDS011;24727;51.974;20.868;2023-02-28T10:45:53;12.70;;;7.40;;
38937;SDS011;24727;51.974;20.868;2023-02-28T10:51:18;12.63;;;7.57;;
38937;SDS011;24727;51.974;20.868;2023-02-28T10:53:49;9.20;;;6.05;;
38937;SDS011;24727;51.974;20.868;2023-02-28T10:56:25;10.73;;;6.32;;
38937;SDS011;24727;51.974;20.868;2023-02-28T11:01:46;10.23;;;6.65;;
38937;SDS011;24727;51.974;20.868;2023-02-28T11:07:20;10.02;;;6.60;;
38937;SDS011;24727;51.974;20.868;2023-02-28T11:09:49;10.45;;;6.20;;
38937;SDS011;24727;51.974;20.868;2023-02-28T11:12:40;12.57;;;7.38;;
38937;SDS011;24727;51.974;20.868;2023-02-28T11:15:24;13.23;;;6.32;;
38937;SDS011;24727;51.974;20.868;2023-02-28T11:20:28;9.85;;;6.10;;
38937;SDS011;24727;51.974;20.868;2023-02-28T11:22:58;11.70;;;5.95;;
38937;SDS011;24727;51.974;20.868;2023-02-28T11:31:00;10.73;;;5.80;;
38937;SDS011;24727;51.974;20.868;2023-02-28T11:33:30;10.23;;;5.90;;
38937;SDS011;24727;51.974;20.868;2023-02-28T11:38:43;12.30;;;8.30;;
38937;SDS011;24727;51.974;20.868;2023-02-28T11:44:05;11.40;;;7.00;;
38937;SDS011;24727;51.974;20.868;2023-02-28T11:46:44;11.95;;;6.95;;
38937;SDS011;24727;51.974;20.868;2023-02-28T11:54:59;13.50;;;7.25;;
38937;SDS011;24727;51.974;20.868;2023-02-28T11:57:36;11.02;;;7.18;;
38937;SDS011;24727;51.974;20.868;2023-02-28T12:00:37;12.13;;;7.65;;
38937;SDS011;24727;51.974;20.868;2023-02-28T12:09:35;11.85;;;6.70;;
38937;SDS011;24727;51.974;20.868;2023-02-28T12:17:34;10.30;;;7.03;;
38937;SDS011;24727;51.974;20.868;2023-02-28T12:29:12;10.13;;;6.78;;
38937;SDS011;24727;51.974;20.868;2023-02-28T12:32:17;11.10;;;6.93;;
38937;SDS011;24727;51.974;20.868;2023-02-28T12:37:47;13.43;;;7.25;;
38937;SDS011;24727;51.974;20.868;2023-02-28T12:40:23;16.63;;;8.27;;
38937;SDS011;24727;51.974;20.868;2023-02-28T12:43:04;10.68;;;7.40;;
38937;SDS011;24727;51.974;20.868;2023-02-28T12:51:33;10.77;;;6.93;;
38937;SDS011;24727;51.974;20.868;2023-02-28T12:59:48;13.95;;;7.93;;
38937;SDS011;24727;51.974;20.868;2023-02-28T13:10:19;15.00;;;7.10;;
38937;SDS011;24727;51.974;20.868;2023-02-28T13:12:50;10.88;;;7.00;;
38937;SDS011;24727;51.974;20.868;2023-02-28T13:15:25;9.95;;;6.82;;
38937;SDS011;24727;51.974;20.868;2023-02-28T13:18:00;10.02;;;6.90;;
38937;SDS011;24727;51.974;20.868;2023-02-28T13:20:29;13.27;;;7.70;;
38937;SDS011;24727;51.974;20.868;2023-02-28T13:23:01;12.63;;;6.63;;
38937;SDS011;24727;51.974;20.868;2023-02-28T13:28:03;10.13;;;6.68;;
38937;SDS011;24727;51.974;20.868;2023-02-28T13:34:04;11.65;;;6.40;;
38937;SDS011;24727;51.974;20.868;2023-02-28T13:38:59;13.60;;;7.03;;
38937;SDS011;24727;51.974;20.868;2023-02-28T13:44:03;16.98;;;7.75;;
38937;SDS011;24727;51.974;20.868;2023-02-28T13:52:15;14.02;;;7.28;;
38937;SDS011;24727;51.974;20.868;2023-02-28T14:09:06;13.45;;;7.75;;
38937;SDS011;24727;51.974;20.868;2023-02-28T14:11:42;14.15;;;7.60;;
38937;SDS011;24727;51.974;20.868;2023-02-28T14:14:10;12.70;;;7.45;;
38937;SDS011;24727;51.974;20.868;2023-02-28T14:17:05;12.13;;;7.25;;
38937;SDS011;24727;51.974;20.868;2023-02-28T14:19:36;14.85;;;8.65;;
38937;SDS011;24727;51.974;20.868;2023-02-28T14:25:08;12.60;;;7.90;;
38937;SDS011;24727;51.974;20.868;2023-02-28T14:41:23;12.80;;;7.30;;
38937;SDS011;24727;51.974;20.868;2023-02-28T14:44:01;17.70;;;8.80;;
38937;SDS011;24727;51.974;20.868;2023-02-28T14:46:38;14.02;;;8.23;;
38937;SDS011;24727;51.974;20.868;2023-02-28T14:49:06;14.88;;;8.70;;
38937;SDS011;24727;51.974;20.868;2023-02-28T14:51:38;17.63;;;8.90;;
38937;SDS011;24727;51.974;20.868;2023-02-28T14:54:06;14.75;;;8.68;;
38937;SDS011;24727;51.974;20.868;2023-02-28T14:56:38;14.27;;;7.90;;
38937;SDS011;24727;51.974;20.868;2023-02-28T14:59:29;22.38;;;8.98;;
38937;SDS011;24727;51.974;20.868;2023-02-28T15:02:20;14.40;;;7.78;;
38937;SDS011;24727;51.974;20.868;2023-02-28T15:07:41;14.77;;;8.65;;
38937;SDS011;24727;51.974;20.868;2023-02-28T15:15:16;20.00;;;9.57;;
38937;SDS011;24727;51.974;20.868;2023-02-28T15:17:45;28.77;;;9.10;;
38937;SDS011;24727;51.974;20.868;2023-02-28T15:20:16;15.55;;;9.48;;
38937;SDS011;24727;51.974;20.868;2023-02-28T15:22:44;22.88;;;10.00;;
38937;SDS011;24727;51.974;20.868;2023-02-28T15:25:15;19.48;;;10.30;;
38937;SDS011;24727;51.974;20.868;2023-02-28T15:27:45;26.27;;;9.98;;
38937;SDS011;24727;51.974;20.868;2023-02-28T15:30:17;30.50;;;11.15;;
38937;SDS011;24727;51.974;20.868;2023-02-28T15:33:01;24.63;;;10.32;;
38937;SDS011;24727;51.974;20.868;2023-02-28T15:35:49;34.97;;;9.77;;
38937;SDS011;24727;51.974;20.868;2023-02-28T15:38:24;22.95;;;10.38;;
38937;SDS011;24727;51.974;20.868;2023-02-28T15:40:57;20.00;;;9.32;;
38937;SDS011;24727;51.974;20.868;2023-02-28T15:45:52;17.25;;;8.85;;
38937;SDS011;24727;51.974;20.868;2023-02-28T15:48:31;15.50;;;9.23;;
38937;SDS011;24727;51.974;20.868;2023-02-28T15:51:16;29.10;;;10.00;;
38937;SDS011;24727;51.974;20.868;2023-02-28T15:53:48;26.17;;;8.95;;
38937;SDS011;24727;51.974;20.868;2023-02-28T15:56:23;16.20;;;8.43;;
38937;SDS011;24727;51.974;20.868;2023-02-28T15:58:59;19.52;;;9.35;;
38937;SDS011;24727;51.974;20.868;2023-02-28T16:04:05;20.00;;;9.68;;
38937;SDS011;24727;51.974;20.868;2023-02-28T16:09:25;21.08;;;9.60;;
38937;SDS011;24727;51.974;20.868;2023-02-28T16:11:55;18.73;;;10.15;;
38937;SDS011;24727;51.974;20.868;2023-02-28T16:14:28;18.23;;;8.85;;
38937;SDS011;24727;51.974;20.868;2023-02-28T16:17:06;23.45;;;9.75;;
38937;SDS011;24727;51.974;20.868;2023-02-28T16:19:40;30.50;;;10.57;;
38937;SDS011;24727;51.974;20.868;2023-02-28T16:22:07;34.10;;;12.05;;
38937;SDS011;24727;51.974;20.868;2023-02-28T16:24:41;24.23;;;10.30;;
38937;SDS011;24727;51.974;20.868;2023-02-28T16:27:07;28.20;;;11.40;;
38937;SDS011;24727;51.974;20.868;2023-02-28T16:29:48;35.78;;;10.63;;
38937;SDS011;24727;51.974;20.868;2023-02-28T16:32:15;25.42;;;10.63;;
38937;SDS011;24727;51.974;20.868;2023-02-28T16:34:42;22.90;;;10.23;;
38937;SDS011;24727;51.974;20.868;2023-02-28T16:37:11;20.27;;;9.45;;
38937;SDS011;24727;51.974;20.868;2023-02-28T16:39:39;13.63;;;8.05;;
38937;SDS011;24727;51.974;20.868;2023-02-28T16:42:09;19.98;;;10.00;;
38937;SDS011;24727;51.974;20.868;2023-02-28T16:44:51;17.73;;;9.40;;
38937;SDS011;24727;51.974;20.868;2023-02-28T16:47:18;16.63;;;9.07;;
38937;SDS011;24727;51.974;20.868;2023-02-28T16:49:45;19.27;;;9.98;;
38937;SDS011;24727;51.974;20.868;2023-02-28T16:52:13;24.10;;;12.07;;
38937;SDS011;24727;51.974;20.868;2023-02-28T16:54:40;19.75;;;9.73;;
38937;SDS011;24727;51.974;20.868;2023-02-28T16:57:21;17.27;;;9.25;;
38937;SDS011;24727;51.974;20.868;2023-02-28T16:59:50;20.08;;;10.57;;
38937;SDS011;24727;51.974;20.868;2023-02-28T17:02:16;19.65;;;10.73;;
38937;SDS011;24727;51.974;20.868;2023-02-28T17:04:44;21.55;;;10.57;;
38937;SDS011;24727;51.974;20.868;2023-02-28T17:07:15;18.02;;;10.30;;
38937;SDS011;24727;51.974;20.868;2023-02-28T17:09:44;25.58;;;13.90;;
38937;SDS011;24727;51.974;20.868;2023-02-28T17:12:10;30.13;;;13.93;;
38937;SDS011;24727;51.974;20.868;2023-02-28T17:14:38;23.67;;;13.70;;
38937;SDS011;24727;51.974;20.868;2023-02-28T17:17:05;26.55;;;13.60;;
38937;SDS011;24727;51.974;20.868;2023-02-28T17:19:31;31.88;;;15.10;;
38937;SDS011;24727;51.974;20.868;2023-02-28T17:21:59;32.58;;;15.35;;
38937;SDS011;24727;51.974;20.868;2023-02-28T17:24:25;30.75;;;14.80;;
38937;SDS011;24727;51.974;20.868;2023-02-28T17:26:52;33.10;;;14.68;;
38937;SDS011;24727;51.974;20.868;2023-02-28T17:29:20;31.10;;;15.82;;
38937;SDS011;24727;51.974;20.868;2023-02-28T17:31:47;32.63;;;16.83;;
38937;SDS011;24727;51.974;20.868;2023-02-28T17:34:13;30.15;;;15.55;;
38937;SDS011;24727;51.974;20.868;2023-02-28T17:36:47;32.15;;;16.80;;
38937;SDS011;24727;51.974;20.868;2023-02-28T17:39:17;34.08;;;16.02;;
38937;SDS011;24727;51.974;20.868;2023-02-28T17:41:50;35.43;;;17.07;;
38937;SDS011;24727;51.974;20.868;2023-02-28T17:44:19;28.08;;;14.88;;
38937;SDS011;24727;51.974;20.868;2023-02-28T17:46:47;30.35;;;15.15;;
38937;SDS011;24727;51.974;20.868;2023-02-28T17:49:14;28.08;;;13.93;;
38937;SDS011;24727;51.974;20.868;2023-02-28T17:51:42;32.25;;;16.92;;
38937;SDS011;24727;51.974;20.868;2023-02-28T17:54:09;40.40;;;18.42;;